createdAt,value
2022-11-16T00:01:44.330Z,100602.94
2022-11-16T00:04:31.625Z,100588.72
2022-11-16T00:08:09.364Z,100581.13
2022-11-16T00:12:24.476Z,100586.81
2022-11-16T00:15:16.956Z,100592.66
2022-11-16T00:18:12.805Z,100593.16
2022-11-16T00:20:47.546Z,100586.41
2022-11-16T00:23:24.851Z,100581.88
2022-11-16T00:26:57.306Z,100590.81
2022-11-16T00:29:44.345Z,100623.78
2022-11-16T00:32:19.516Z,100650.16
2022-11-16T00:34:51.504Z,100672.97
2022-11-16T00:37:37.343Z,100676.59
2022-11-16T00:43:57.411Z,100683.56
2022-11-16T00:46:42.390Z,100658.78
2022-11-16T00:49:32.110Z,100679.19
2022-11-16T00:52:20.908Z,100682.91
2022-11-16T00:54:54.920Z,100620.19
2022-11-16T00:57:40.670Z,100610.78
2022-11-16T01:00:18.823Z,100607.59
2022-11-16T01:02:59.748Z,100600.38
2022-11-16T01:05:39.234Z,100582.66
2022-11-16T01:08:15.703Z,100564.06
2022-11-16T01:11:25.101Z,100562.59
2022-11-16T01:23:15.801Z,100620.69
2022-11-16T01:25:48.024Z,100601.03
2022-11-16T01:28:22.707Z,100595.66
2022-11-16T01:31:10.840Z,100581.38
2022-11-16T01:33:43.274Z,100580.81
2022-11-16T01:36:40.034Z,100570.63
2022-11-16T01:39:23.017Z,100563.50
2022-11-16T01:42:19.580Z,100552.47
2022-11-16T01:45:07.305Z,100539.31
2022-11-16T01:47:42.825Z,100535.19
2022-11-16T01:50:36.218Z,100527.88
2022-11-16T01:53:09.134Z,100519.59
2022-11-16T01:55:56.222Z,100529.97
2022-11-16T01:58:35.365Z,100522.66
2022-11-16T02:01:31.146Z,100503.03
2022-11-16T02:04:09.063Z,100503.47
2022-11-16T02:07:08.917Z,100484.53
2022-11-16T02:10:04.524Z,100473.44
2022-11-16T02:13:16.594Z,100464.00
2022-11-16T02:16:11.675Z,100458.53
2022-11-16T02:19:06.792Z,100451.16
2022-11-16T02:22:03.430Z,100451.09
2022-11-16T02:24:52.338Z,100440.59
2022-11-16T02:27:51.639Z,100441.28
2022-11-16T02:30:25.568Z,100436.06
2022-11-16T02:33:12.777Z,100427.25
2022-11-16T02:36:03.863Z,100428.38
2022-11-16T02:38:53.001Z,100408.75
2022-11-16T02:41:37.268Z,100430.41
2022-11-16T02:44:16.757Z,100426.56
2022-11-16T02:46:56.355Z,100433.88
2022-11-16T02:49:44.467Z,100424.63
2022-11-16T02:52:20.457Z,100432.28
2022-11-16T02:54:51.338Z,100428.16
2022-11-16T02:57:56.839Z,100431.41
2022-11-16T03:00:49.197Z,100436.53
2022-11-16T03:04:05.625Z,100419.25
2022-11-16T03:06:53.897Z,100393.25
2022-11-16T03:09:39.569Z,100381.56
2022-11-16T03:12:29.818Z,100390.38
2022-11-16T03:15:16.324Z,100370.81
2022-11-16T03:17:56.948Z,100345.81
2022-11-16T03:20:53.103Z,100349.47
2022-11-16T03:23:35.956Z,100338.97
2022-11-16T03:26:17.053Z,100310.00
2022-11-16T03:48:00.058Z,100191.59
2022-11-16T03:50:43.432Z,100178.94
2022-11-16T03:53:37.395Z,100169.97
2022-11-16T03:56:23.039Z,100172.59
2022-11-16T03:59:12.813Z,100166.09
2022-11-16T04:01:47.485Z,100167.25
2022-11-16T04:04:53.338Z,100173.75
2022-11-16T04:08:03.383Z,100172.81
2022-11-16T04:11:13.150Z,100171.81
2022-11-16T04:14:16.334Z,100159.34
2022-11-16T04:17:11.939Z,100153.84
2022-11-16T04:25:41.271Z,100138.03
2022-11-16T04:37:23.093Z,100144.47
2022-11-16T04:40:00.303Z,100149.19
2022-11-16T04:42:43.153Z,100167.28
2022-11-16T04:45:41.492Z,100190.94
2022-11-16T04:48:20.251Z,100198.41
2022-11-16T04:51:07.283Z,100204.41
2022-11-16T04:53:50.019Z,100217.28
2022-11-16T04:56:40.829Z,100219.13
2022-11-16T04:59:20.704Z,100212.13
2022-11-16T05:02:11.685Z,100197.56
2022-11-16T05:05:08.316Z,100184.38
2022-11-16T05:07:55.715Z,100180.47
2022-11-16T05:12:12.444Z,100174.84
2022-11-16T05:15:07.744Z,100182.28
2022-11-16T05:17:39.900Z,100171.91
2022-11-16T05:20:36.516Z,100160.69
2022-11-16T05:23:37.055Z,100153.34
2022-11-16T05:26:19.892Z,100151.31
2022-11-16T05:29:03.004Z,100134.53
2022-11-16T05:31:40.593Z,100141.34
2022-11-16T05:34:16.560Z,100147.41
2022-11-16T05:36:51.710Z,100144.03
2022-11-16T05:39:33.138Z,100131.06
2022-11-16T05:42:11.120Z,100128.72
2022-11-16T05:47:41.068Z,100117.88
2022-11-16T05:50:14.806Z,100104.09
2022-11-16T05:52:53.742Z,100093.56
2022-11-16T05:55:44.774Z,100105.69
2022-11-16T05:58:20.302Z,100100.72
2022-11-16T06:00:59.363Z,100105.78
2022-11-16T06:03:37.391Z,100102.25
2022-11-16T06:06:13.859Z,100099.81
2022-11-16T06:08:56.617Z,100098.47
2022-11-16T06:11:36.210Z,100082.91
2022-11-16T06:14:11.672Z,100072.44
2022-11-16T06:16:46.538Z,100069.03
2022-11-16T06:23:28.113Z,100058.91
2022-11-16T06:26:15.530Z,100058.22
2022-11-16T06:29:07.484Z,100055.53
2022-11-16T06:31:51.301Z,100059.63
2022-11-16T06:34:31.134Z,100059.28
2022-11-16T06:37:11.348Z,100059.06
2022-11-16T06:39:50.041Z,100049.63
2022-11-16T06:42:28.309Z,100051.78
2022-11-16T06:45:11.100Z,100060.44
2022-11-16T06:47:47.603Z,100056.25
2022-11-16T06:50:29.907Z,100058.03
2022-11-16T06:53:08.611Z,100054.31
2022-11-16T06:55:43.204Z,100061.19
2022-11-16T06:58:20.444Z,100061.09
2022-11-16T07:01:03.940Z,100067.44
2022-11-16T07:04:07.956Z,100062.00
2022-11-16T07:06:43.833Z,100072.25
2022-11-16T07:09:18.208Z,100066.72
2022-11-16T07:11:50.066Z,100065.94
2022-11-16T07:14:23.161Z,100064.28
2022-11-16T07:16:59.034Z,100067.50
2022-11-16T07:19:34.327Z,100061.81
2022-11-16T07:22:09.322Z,100066.13
2022-11-16T07:24:40.398Z,100073.59
2022-11-16T07:27:13.585Z,100074.91
2022-11-16T07:29:46.945Z,100085.75
2022-11-16T07:32:59.622Z,100072.38
2022-11-16T07:36:11.879Z,100072.66
2022-11-16T07:38:42.095Z,100075.09
2022-11-16T07:41:19.666Z,100069.44
2022-11-16T07:44:08.424Z,100063.59
2022-11-16T07:46:46.930Z,100066.47
2022-11-16T07:49:21.650Z,100054.91
2022-11-16T07:52:03.726Z,100059.59
2022-11-16T07:55:36.784Z,100054.91
2022-11-16T07:58:08.419Z,100071.06
2022-11-16T08:00:40.097Z,100061.41
2022-11-16T08:03:24.371Z,100059.75
2022-11-16T08:06:13.566Z,100060.69
2022-11-16T08:08:53.703Z,100062.06
2022-11-16T08:11:32.475Z,100065.75
2022-11-16T08:14:10.997Z,100077.38
2022-11-16T08:16:46.558Z,100070.22
2022-11-16T08:19:18.734Z,100060.56
2022-11-16T08:21:50.815Z,100067.06
2022-11-16T08:24:24.150Z,100070.88
2022-11-16T08:27:01.352Z,100065.38
2022-11-16T08:34:10.077Z,100062.78
2022-11-16T08:36:47.953Z,100074.50
2022-11-16T08:39:31.959Z,100069.06
2022-11-16T08:42:04.376Z,100062.41
2022-11-16T08:44:39.289Z,100065.94
2022-11-16T08:47:15.428Z,100067.91
2022-11-16T08:49:59.642Z,100065.94
2022-11-16T08:52:37.018Z,100067.25
2022-11-16T08:55:15.964Z,100067.91
2022-11-16T08:57:48.491Z,100054.22
2022-11-16T09:00:21.435Z,100051.72
2022-11-16T09:02:53.487Z,100039.56
2022-11-16T09:05:56.668Z,100039.38
2022-11-16T09:08:35.548Z,100032.06
2022-11-16T09:11:13.512Z,100025.44
2022-11-16T09:13:45.569Z,100028.25
2022-11-16T09:16:17.345Z,100026.25
2022-11-16T09:18:51.323Z,100016.06
2022-11-16T09:21:33.549Z,100041.75
2022-11-16T09:24:07.746Z,100043.69
2022-11-16T09:26:39.548Z,100034.19
2022-11-16T09:29:17.291Z,100026.03
2022-11-16T09:31:50.101Z,100025.47
2022-11-16T09:34:36.965Z,100027.47
2022-11-16T09:37:12.219Z,100019.16
2022-11-16T09:39:45.471Z,100012.47
2022-11-16T09:42:33.046Z,100021.22
2022-11-16T09:46:03.883Z,100024.91
2022-11-16T09:48:40.426Z,100033.72
2022-11-16T09:51:20.121Z,100035.78
2022-11-16T09:53:59.665Z,100046.09
2022-11-16T09:56:36.918Z,100048.28
2022-11-16T09:59:18.366Z,100045.44
2022-11-16T10:02:18.673Z,100055.09
2022-11-16T10:05:12.950Z,100065.88
2022-11-16T10:08:23.048Z,100071.47
2022-11-16T10:11:34.590Z,100077.41
2022-11-16T10:15:11.262Z,100082.50
2022-11-16T10:17:51.491Z,100087.84
2022-11-16T10:20:52.876Z,100081.66
2022-11-16T10:23:44.709Z,100090.47
2022-11-16T10:26:37.404Z,100087.91
2022-11-16T10:29:29.028Z,100094.00
2022-11-16T10:32:36.309Z,100085.56
2022-11-16T10:35:17.721Z,100080.06
2022-11-16T10:37:54.534Z,100080.81
2022-11-16T10:40:48.966Z,100083.66
2022-11-16T10:43:36.287Z,100074.78
2022-11-16T10:46:51.658Z,100083.00
2022-11-16T10:50:01.133Z,100090.63
2022-11-16T10:53:38.218Z,100088.66
2022-11-16T10:56:12.898Z,100097.16
2022-11-16T10:58:57.929Z,100100.63
2022-11-16T11:01:43.173Z,100090.97
2022-11-16T11:04:20.965Z,100102.47
2022-11-16T11:07:08.227Z,100102.31
2022-11-16T11:09:44.509Z,100112.94
2022-11-16T11:12:41.354Z,100111.28
2022-11-16T11:15:39.321Z,100110.28
2022-11-16T11:18:25.295Z,100106.16
2022-11-16T11:21:21.740Z,100097.38
2022-11-16T11:24:42.441Z,100098.19
2022-11-16T11:28:34.596Z,100097.41
2022-11-16T11:31:34.989Z,100116.91
2022-11-16T11:34:24.140Z,100109.94
2022-11-16T11:37:13.664Z,100111.78
2022-11-16T11:39:48.036Z,100105.72
2022-11-16T11:42:20.393Z,100120.06
2022-11-16T11:45:13.430Z,100124.22
2022-11-16T11:48:04.554Z,100121.66
2022-11-16T11:50:42.501Z,100131.25
2022-11-16T11:53:51.289Z,100124.84
2022-11-16T11:56:24.360Z,100121.94
2022-11-16T12:04:40.132Z,100130.44
2022-11-16T12:07:45.719Z,100141.91
2022-11-16T12:10:53.518Z,100160.97
2022-11-16T12:14:13.385Z,100176.84
2022-11-16T12:16:58.202Z,100173.22
2022-11-16T12:20:03.824Z,100169.88
2022-11-16T12:23:07.996Z,100168.69
2022-11-16T12:25:56.037Z,100172.03
2022-11-16T12:28:52.703Z,100178.53
2022-11-16T12:31:44.440Z,100182.34
2022-11-16T12:58:51.928Z,100185.97
2022-11-16T13:01:57.587Z,100198.97
2022-11-16T13:04:53.088Z,100200.75
2022-11-16T13:07:47.381Z,100184.97
2022-11-16T13:11:04.767Z,100199.78
2022-11-16T13:13:53.913Z,100206.13
2022-11-16T13:16:36.383Z,100201.97
2022-11-16T13:19:13.625Z,100201.28
2022-11-16T13:22:16.436Z,100210.78
2022-11-16T13:25:01.331Z,100211.47
2022-11-16T13:27:56.858Z,100213.34
2022-11-16T13:31:00.110Z,100214.13
2022-11-16T13:33:53.410Z,100205.84
2022-11-16T13:36:50.271Z,100206.94
2022-11-16T13:39:45.276Z,100208.84
2022-11-16T13:42:31.311Z,100210.47
2022-11-16T13:45:24.883Z,100215.28
2022-11-16T13:48:16.303Z,100210.47
2022-11-16T13:51:08.866Z,100215.75
2022-11-16T14:01:01.360Z,100209.69
2022-11-16T14:03:40.067Z,100223.59
2022-11-16T14:06:16.775Z,100235.19
2022-11-16T14:09:00.222Z,100220.91
2022-11-16T14:11:35.067Z,100223.91
2022-11-16T14:14:46.687Z,100219.75
2022-11-16T14:18:00.563Z,100195.97
2022-11-16T14:20:47.889Z,100186.56
2022-11-16T14:23:37.593Z,100202.38
2022-11-16T14:26:48.460Z,100196.50
2022-11-16T14:30:04.261Z,100196.72
2022-11-16T14:34:20.418Z,100194.22
2022-11-16T14:40:41.720Z,100191.53
2022-11-16T14:43:53.262Z,100202.91
2022-11-16T14:46:39.700Z,100207.19
2022-11-16T14:49:31.197Z,100211.91
2022-11-16T14:52:10.622Z,100205.72
2022-11-16T14:59:11.689Z,100213.94
2022-11-16T15:02:33.153Z,100214.66
2022-11-16T15:05:23.827Z,100223.75
2022-11-16T15:08:34.979Z,100225.47
2022-11-16T17:15:55.676Z,100163.66
2022-11-16T18:54:02.115Z,100164.78
2022-11-16T18:56:40.743Z,100151.75
2022-11-16T18:59:12.908Z,100144.63
2022-11-16T19:01:45.095Z,100150.19
2022-11-16T19:04:17.521Z,100133.88
2022-11-16T19:06:48.980Z,100135.31
2022-11-16T19:09:21.251Z,100118.16
2022-11-16T19:11:53.297Z,100114.63
2022-11-16T20:17:50.183Z,100098.16
2022-11-16T21:55:32.533Z,100186.25
2022-11-16T22:04:16.987Z,100204.53
